Flight Track Log - Related Links

Times and Time Zones

All times are in EDT time to prevent confusion due to time zone crossing. See the PDT4314 flight status page for this flight to view local times or setup timezone preferences in your user account.

Time Position Orientation Groundspeed Altitude Reporting Facility
EDT Latitude Longitude Course Direction KTS MPH feet Rate Location/Type
Wed 06:36:00 PM 42.0464 -75.9266 180° South  Level Estimated
Wed 06:37:00 PM 41.9908 -75.9279 181° South  Level FlightAware Approximate
Wed 06:38:00 PM 41.9353 -75.9291 181° South  Level FlightAware Approximate
Wed 06:39:00 PM 41.8797 -75.9304 181° South  Level FlightAware Approximate
Wed 06:40:00 PM 41.8260 -75.9113 154° Southeast  Level Estimated
Wed 06:41:00 PM 41.7722 -75.8923 160° South  Level Estimated
Wed 06:42:00 PM 41.7184 -75.8734 159° South  Level Estimated
Wed 06:43:00 PM 41.6646 -75.8552 166° South  Level FlightAware Approximate
Wed 06:44:00 PM 41.6106 -75.8371 166° South  Level FlightAware Approximate
Wed 06:45:00 PM 41.5569 -75.8182 153° Southeast  Level Estimated
Wed 06:46:00 PM 41.5031 -75.7993 161° South  Level Estimated
Wed 06:47:00 PM 41.4510 -75.7736 160° South  Level FlightAware Approximate
Wed 06:48:00 PM 41.3988 -75.7480 160° South  Level FlightAware Approximate
Wed 06:49:00 PM 41.3450 -75.7297 162° South  Level Estimated
Wed 06:50:00 PM 41.2926 -75.7048 160° South  Level FlightAware Approximate
Wed 06:51:00 PM 41.2403 -75.6800 160° South  Level FlightAware Approximate
Wed 06:52:00 PM 41.1879 -75.6553 160° South  Level FlightAware Approximate
Wed 06:53:00 PM 41.1355 -75.6305 160° South  Level FlightAware Approximate
Wed 06:54:00 PM 41.0814 -75.6135 159° South  Level Estimated
Wed 06:55:00 PM 41.0274 -75.5965 163° South  Level Estimated
Wed 06:56:00 PM 40.9750 -75.5717 160° South  Level FlightAware Approximate
Wed 06:57:00 PM 40.9227 -75.5470 160° South  Level FlightAware Approximate
Wed 06:58:00 PM 40.8703 -75.5223 160° South  Level FlightAware Approximate
Wed 06:58:21 PM 40.6667 -75.4667 183° South 265 305 7,400  Level Philadelphia TRACON
Wed 06:58:51 PM 40.6333 -75.4667 180° South 263 303 7,000 -800 Descending Philadelphia TRACON
Wed 06:59:00 PM 40.8180 -75.4976 160° South  Level FlightAware Approximate
Wed 06:59:51 PM 40.5667 -75.5000 201° Southwest 264 304 6,200  Level Philadelphia TRACON
Wed 07:00:00 PM 40.7636 -75.4827 190° South  Level Estimated
Wed 07:00:51 PM 40.5000 -75.5000 180° South 265 305 5,400  Level Philadelphia TRACON
Wed 07:01:00 PM 40.7080 -75.4863 183° South  Level FlightAware Approximate
Wed 07:01:51 PM 40.4333 -75.4667 159° South 261 300 5,000  Level Philadelphia TRACON
Wed 07:02:00 PM 40.6525 -75.4900 183° South  Level FlightAware Approximate
Wed 07:02:51 PM 40.3667 -75.4167 150° Southeast 246 283 5,000  Level Philadelphia TRACON
Wed 07:03:00 PM 40.5970 -75.4936 183° South  Level FlightAware Approximate
Wed 07:03:51 PM 40.3167 -75.3667 143° Southeast 243 280 5,000  Level Philadelphia TRACON
Wed 07:04:51 PM 40.2500 -75.3333 159° South 250 288 4,500 -496 Descending Philadelphia TRACON
Wed 07:05:52 PM 40.1833 -75.3000 159° South 255 293 4,000 -248 Descending Philadelphia TRACON
Wed 07:06:52 PM 40.1333 -75.2500 143° Southeast 237 273 4,000  Level Philadelphia TRACON
Wed 07:07:52 PM 40.0667 -75.2167 159° South 239 275 4,000  Level Philadelphia TRACON
Wed 07:08:58 PM 40.0000 -75.1833 159° South 238 274 4,000  Level Philadelphia TRACON
Wed 07:09:52 PM 39.9500 -75.1667 166° South 238 274 4,000 -500 Level Philadelphia TRACON
Wed 07:10:58 PM 39.8833 -75.1333 159° South 206 237 3,000 -1,095 Descending Philadelphia TRACON
Wed 07:11:58 PM 39.8333 -75.1167 166° South 210 242 1,700 -700 Descending Philadelphia TRACON
Wed 07:12:58 PM 39.8167 -75.1833 252° West 154 177 1,600 -400 Descending Philadelphia TRACON
Wed 07:13:58 PM 39.8333 -75.2000 322° Northwest 123 142 900 -750 Descending Philadelphia TRACON
Wed 07:14:58 PM 39.8667 -75.2333 322° Northwest 125 144 100 -800 Descending Philadelphia TRACON

Login

Don't have an account? Register now (free) for customized features, flight alerts, and more!